Time,TemperatureF,DewpointF,PressureIn,WindDirection,WindDirectionDegrees,WindSpeedMPH,WindSpeedGustMPH,Humidity,HourlyPrecipIn,Conditions,Clouds,dailyrainin,SoftwareType,DateUTC
2013-01-03 00:00:00,17.3,12.5,30.19,North,360,0.0,0.0,81,0.00,,,0.00,Wunderground v.1.13,2013-01-03 05:00:00,
2013-01-03 00:03:00,17.3,12.5,30.19,North,360,0.0,0.0,81,0.00,,,0.00,Wunderground v.1.13,2013-01-03 05:03:00,
2013-01-03 00:04:00,17.2,12.4,30.19,North,360,0.0,0.0,81,0.00,,,0.00,Wunderground v.1.13,2013-01-03 05:04:00,
2013-01-03 00:10:00,17.1,12.3,30.19,North,32767,0.0,0.0,81,0.00,,,0.00,Wunderground v.1.13,2013-01-03 05:10:00,
2013-01-03 00:13:00,17.1,12.3,30.19,North,360,0.0,0.0,81,0.00,,,0.00,Wunderground v.1.13,2013-01-03 05:13:00,
2013-01-03 00:19:00,16.9,12.1,30.19,North,360,0.0,0.0,81,0.00,,,0.00,Wunderground v.1.13,2013-01-03 05:19:00,
2013-01-03 00:25:00,16.9,12.1,30.19,North,360,0.0,0.0,81,0.00,,,0.00,Wunderground v.1.13,2013-01-03 05:25:00,
2013-01-03 00:31:00,16.8,12.0,30.19,North,32767,0.0,0.0,81,0.00,,,0.00,Wunderground v.1.13,2013-01-03 05:31:00,
2013-01-03 00:37:00,16.7,11.9,30.19,North,32767,0.0,0.0,81,0.00,,,0.00,Wunderground v.1.13,2013-01-03 05:37:00,
2013-01-03 00:43:00,16.7,11.9,30.19,North,32767,0.0,0.0,81,0.00,,,0.00,Wunderground v.1.13,2013-01-03 05:43:00,
2013-01-03 00:49:00,16.6,11.8,30.19,North,32767,0.0,0.0,81,0.00,,,0.00,Wunderground v.1.13,2013-01-03 05:49:00,
2013-01-03 00:54:00,16.5,11.7,30.19,North,32767,0.0,0.0,81,0.00,,,0.00,Wunderground v.1.13,2013-01-03 05:54:00,
2013-01-03 01:00:00,16.5,11.7,30.19,North,360,0.0,0.0,81,0.00,,,0.00,Wunderground v.1.13,2013-01-03 06:00:00,
2013-01-03 01:06:00,16.4,11.6,30.19,North,360,0.0,0.0,81,0.00,,,0.00,Wunderground v.1.13,2013-01-03 06:06:00,
2013-01-03 01:11:00,16.4,11.6,30.19,North,32767,0.0,0.0,81,0.00,,,0.00,Wunderground v.1.13,2013-01-03 06:11:00,
2013-01-03 01:17:00,16.3,11.5,30.18,North,32767,0.0,0.0,81,0.00,,,0.00,Wunderground v.1.13,2013-01-03 06:17:00,
2013-01-03 01:22:00,16.3,11.5,30.18,North,360,0.0,0.0,81,0.00,,,0.00,Wunderground v.1.13,2013-01-03 06:22:00,
2013-01-03 01:28:00,16.2,11.4,30.18,North,32767,0.0,0.0,81,0.00,,,0.00,Wunderground v.1.13,2013-01-03 06:28:00,
2013-01-03 01:33:00,16.1,11.3,30.18,North,32767,0.0,0.0,81,0.00,,,0.00,Wunderground v.1.13,2013-01-03 06:33:00,
2013-01-03 01:39:00,15.9,11.1,30.18,North,32767,0.0,0.0,81,0.00,,,0.00,Wunderground v.1.13,2013-01-03 06:39:00,
2013-01-03 01:45:00,15.9,11.1,30.17,North,32767,0.0,0.0,81,0.00,,,0.00,Wunderground v.1.13,2013-01-03 06:45:00,
2013-01-03 01:50:00,15.9,11.1,30.17,North,32767,0.0,0.0,81,0.00,,,0.00,Wunderground v.1.13,2013-01-03 06:50:00,
2013-01-03 01:56:00,15.8,11.0,30.17,North,32767,0.0,0.0,81,0.00,,,0.00,Wunderground v.1.13,2013-01-03 06:56:00,
2013-01-03 02:02:00,15.8,11.0,30.17,North,32767,0.0,0.0,81,0.00,,,0.00,Wunderground v.1.13,2013-01-03 07:02:00,
2013-01-03 02:08:00,15.8,11.0,30.17,North,360,0.0,0.0,81,0.00,,,0.00,Wunderground v.1.13,2013-01-03 07:08:00,
2013-01-03 02:13:00,15.7,10.6,30.18,North,360,0.0,0.0,80,0.00,,,0.00,Wunderground v.1.13,2013-01-03 07:13:00,
2013-01-03 02:19:00,15.6,10.5,30.18,North,360,0.0,0.0,80,0.00,,,0.00,Wunderground v.1.13,2013-01-03 07:19:00,
2013-01-03 02:24:00,15.6,10.5,30.18,North,360,0.0,0.0,80,0.00,,,0.00,Wunderground v.1.13,2013-01-03 07:24:00,
2013-01-03 02:30:00,15.7,10.6,30.18,North,360,0.0,0.0,80,0.00,,,0.00,Wunderground v.1.13,2013-01-03 07:30:00,
2013-01-03 02:35:00,15.7,10.6,30.18,North,360,0.0,0.0,80,0.00,,,0.00,Wunderground v.1.13,2013-01-03 07:35:00,
2013-01-03 02:40:00,15.7,10.6,30.18,North,360,0.0,0.0,80,0.00,,,0.00,Wunderground v.1.13,2013-01-03 07:40:00,
2013-01-03 02:46:00,15.8,10.7,30.18,North,32767,0.0,0.0,80,0.00,,,0.00,Wunderground v.1.13,2013-01-03 07:46:00,
2013-01-03 02:51:00,15.9,10.5,30.18,North,360,0.0,0.0,79,0.00,,,0.00,Wunderground v.1.13,2013-01-03 07:51:00,
2013-01-03 02:56:00,16.1,10.7,30.18,North,32767,0.0,0.0,79,0.00,,,0.00,Wunderground v.1.13,2013-01-03 07:56:00,
2013-01-03 03:02:00,16.3,10.6,30.17,North,32767,0.0,0.0,78,0.00,,,0.00,Wunderground v.1.13,2013-01-03 08:02:00,
2013-01-03 03:08:00,16.4,10.7,30.17,North,32767,0.0,0.0,78,0.00,,,0.00,Wunderground v.1.13,2013-01-03 08:08:00,
2013-01-03 03:13:00,16.6,10.6,30.16,North,360,0.0,0.0,77,0.00,,,0.00,Wunderground v.1.13,2013-01-03 08:13:00,
2013-01-03 03:19:00,16.7,10.7,30.16,North,32767,0.0,0.0,77,0.00,,,0.00,Wunderground v.1.13,2013-01-03 08:19:00,
2013-01-03 03:24:00,16.7,10.4,30.16,North,32767,0.0,0.0,76,0.00,,,0.00,Wunderground v.1.13,2013-01-03 08:24:00,
2013-01-03 03:30:00,16.9,10.6,30.17,North,32767,0.0,0.0,76,0.00,,,0.00,Wunderground v.1.13,2013-01-03 08:30:00,
2013-01-03 03:36:00,17.0,10.4,30.17,North,32767,0.0,0.0,75,0.00,,,0.00,Wunderground v.1.13,2013-01-03 08:36:00,
2013-01-03 03:42:00,17.1,10.5,30.17,North,360,0.0,0.0,75,0.00,,,0.00,Wunderground v.1.13,2013-01-03 08:42:00,
2013-01-03 03:48:00,17.2,10.6,30.16,North,32767,0.0,0.0,75,0.00,,,0.00,Wunderground v.1.13,2013-01-03 08:48:00,
2013-01-03 03:54:00,17.4,10.8,30.16,North,32767,0.0,0.0,75,0.00,,,0.00,Wunderground v.1.13,2013-01-03 08:54:00,
2013-01-03 04:00:00,17.4,10.8,30.16,North,32767,0.0,0.0,75,0.00,,,0.00,Wunderground v.1.13,2013-01-03 09:00:00,
2013-01-03 04:05:00,17.4,10.8,30.16,North,360,0.0,0.0,75,0.00,,,0.00,Wunderground v.1.13,2013-01-03 09:05:00,
2013-01-03 04:10:00,17.5,10.9,30.16,North,32767,0.0,0.0,75,0.00,,,0.00,Wunderground v.1.13,2013-01-03 09:10:00,
2013-01-03 04:16:00,17.5,10.9,30.15,North,32767,0.0,0.0,75,0.00,,,0.00,Wunderground v.1.13,2013-01-03 09:16:00,
2013-01-03 04:22:00,17.6,11.0,30.15,North,32767,0.0,0.0,75,0.00,,,0.00,Wunderground v.1.13,2013-01-03 09:22:00,
2013-01-03 04:28:00,17.7,11.1,30.14,North,32767,0.0,0.0,75,0.00,,,0.00,Wunderground v.1.13,2013-01-03 09:28:00,
2013-01-03 04:34:00,17.7,11.1,30.14,North,32767,0.0,0.0,75,0.00,,,0.00,Wunderground v.1.13,2013-01-03 09:34:00,
2013-01-03 04:39:00,17.7,11.1,30.14,North,360,0.0,0.0,75,0.00,,,0.00,Wunderground v.1.13,2013-01-03 09:39:00,
2013-01-03 04:44:00,17.9,11.6,30.14,North,360,0.0,0.0,76,0.00,,,0.00,Wunderground v.1.13,2013-01-03 09:44:00,
2013-01-03 04:50:00,17.9,11.6,30.14,North,360,0.0,0.0,76,0.00,,,0.00,Wunderground v.1.13,2013-01-03 09:50:00,
2013-01-03 04:55:00,18.1,11.8,30.14,North,32767,0.0,0.0,76,0.00,,,0.00,Wunderground v.1.13,2013-01-03 09:55:00,
2013-01-03 05:01:00,18.2,11.9,30.14,North,360,0.0,0.0,76,0.00,,,0.00,Wunderground v.1.13,2013-01-03 10:01:00,
2013-01-03 05:07:00,18.4,12.1,30.14,North,32767,0.0,0.0,76,0.00,,,0.00,Wunderground v.1.13,2013-01-03 10:07:00,
2013-01-03 05:12:00,18.6,12.3,30.14,North,32767,0.0,0.0,76,0.00,,,0.00,Wunderground v.1.13,2013-01-03 10:12:00,
2013-01-03 05:17:00,18.8,12.5,30.14,North,32767,0.0,0.0,76,0.00,,,0.00,Wunderground v.1.13,2013-01-03 10:17:00,
2013-01-03 05:22:00,18.9,12.6,30.14,North,360,0.0,0.0,76,0.00,,,0.00,Wunderground v.1.13,2013-01-03 10:22:00,
2013-01-03 05:27:00,19.1,12.8,30.14,North,32767,0.0,0.0,76,0.00,,,0.00,Wunderground v.1.13,2013-01-03 10:27:00,
2013-01-03 05:33:00,19.3,13.0,30.13,North,32767,0.0,0.0,76,0.00,,,0.00,Wunderground v.1.13,2013-01-03 10:33:00,
2013-01-03 05:39:00,19.4,13.1,30.13,North,32767,0.0,0.0,76,0.00,,,0.00,Wunderground v.1.13,2013-01-03 10:39:00,
2013-01-03 05:45:00,19.4,13.1,30.14,North,360,0.0,0.0,76,0.00,,,0.00,Wunderground v.1.13,2013-01-03 10:45:00,
2013-01-03 05:50:00,19.5,13.2,30.14,North,360,0.0,0.0,76,0.00,,,0.00,Wunderground v.1.13,2013-01-03 10:50:00,
2013-01-03 05:56:00,19.6,13.3,30.14,North,32767,0.0,0.0,76,0.00,,,0.00,Wunderground v.1.13,2013-01-03 10:56:00,
2013-01-03 06:02:00,19.7,13.4,30.13,North,32767,0.0,0.0,76,0.00,,,0.00,Wunderground v.1.13,2013-01-03 11:02:00,
2013-01-03 06:08:00,19.7,13.7,30.13,North,360,0.0,0.0,77,0.00,,,0.00,Wunderground v.1.13,2013-01-03 11:08:00,
2013-01-03 06:13:00,19.7,13.7,30.13,North,32767,0.0,0.0,77,0.00,,,0.00,Wunderground v.1.13,2013-01-03 11:13:00,
2013-01-03 06:19:00,19.7,13.7,30.13,North,360,0.0,0.0,77,0.00,,,0.00,Wunderground v.1.13,2013-01-03 11:19:00,
2013-01-03 06:24:00,19.8,13.8,30.13,North,360,0.0,0.0,77,0.00,,,0.00,Wunderground v.1.13,2013-01-03 11:24:00,
2013-01-03 06:29:00,19.8,13.8,30.13,North,32767,0.0,0.0,77,0.00,,,0.00,Wunderground v.1.13,2013-01-03 11:29:00,
2013-01-03 06:35:00,20.0,14.2,30.13,North,32767,0.0,0.0,78,0.00,,,0.00,Wunderground v.1.13,2013-01-03 11:35:00,
2013-01-03 06:41:00,20.1,14.3,30.13,North,32767,0.0,0.0,78,0.00,,,0.00,Wunderground v.1.13,2013-01-03 11:41:00,
2013-01-03 06:46:00,20.2,14.4,30.13,North,32767,0.0,0.0,78,0.00,,,0.00,Wunderground v.1.13,2013-01-03 11:46:00,
2013-01-03 06:52:00,20.2,14.4,30.13,North,32767,0.0,0.0,78,0.00,,,0.00,Wunderground v.1.13,2013-01-03 11:52:00,
2013-01-03 06:58:00,20.2,14.4,30.12,North,360,0.0,0.0,78,0.00,,,0.00,Wunderground v.1.13,2013-01-03 11:58:00,
2013-01-03 07:04:00,20.4,14.9,30.12,North,32767,0.0,0.0,79,0.00,,,0.00,Wunderground v.1.13,2013-01-03 12:04:00,
2013-01-03 07:10:00,20.5,15.0,30.12,North,360,0.0,0.0,79,0.00,,,0.00,Wunderground v.1.13,2013-01-03 12:10:00,
2013-01-03 07:16:00,20.5,15.0,30.14,North,32767,0.0,0.0,79,0.00,,,0.00,Wunderground v.1.13,2013-01-03 12:16:00,
2013-01-03 07:21:00,20.7,15.2,30.14,North,32767,0.0,0.0,79,0.00,,,0.00,Wunderground v.1.13,2013-01-03 12:21:00,
2013-01-03 07:26:00,20.9,15.7,30.14,North,32767,0.0,0.0,80,0.00,,,0.00,Wunderground v.1.13,2013-01-03 12:26:00,
2013-01-03 07:31:00,20.9,15.7,30.14,North,32767,0.0,0.0,80,0.00,,,0.00,Wunderground v.1.13,2013-01-03 12:31:00,
2013-01-03 07:36:00,21.1,15.9,30.14,North,32767,0.0,0.0,80,0.00,,,0.00,Wunderground v.1.13,2013-01-03 12:36:00,
2013-01-03 07:42:00,21.1,15.9,30.14,North,32767,0.0,0.0,80,0.00,,,0.00,Wunderground v.1.13,2013-01-03 12:42:00,
2013-01-03 07:47:00,21.1,15.9,30.13,North,32767,0.0,0.0,80,0.00,,,0.00,Wunderground v.1.13,2013-01-03 12:47:00,
2013-01-03 07:52:00,21.2,16.3,30.13,North,32767,0.0,0.0,81,0.00,,,0.00,Wunderground v.1.13,2013-01-03 12:52:00,
2013-01-03 07:58:00,21.3,16.4,30.13,North,32767,0.0,0.0,81,0.00,,,0.00,Wunderground v.1.13,2013-01-03 12:58:00,
2013-01-03 08:04:00,21.5,16.6,30.13,North,32767,0.0,0.0,81,0.00,,,0.00,Wunderground v.1.13,2013-01-03 13:04:00,
2013-01-03 08:10:00,21.7,17.1,30.13,North,32767,0.0,0.0,82,0.00,,,0.00,Wunderground v.1.13,2013-01-03 13:10:00,
2013-01-03 08:16:00,21.8,17.2,30.13,North,32767,0.0,0.0,82,0.00,,,0.00,Wunderground v.1.13,2013-01-03 13:16:00,
2013-01-03 08:22:00,22.0,17.3,30.13,North,32767,0.0,0.0,82,0.00,,,0.00,Wunderground v.1.13,2013-01-03 13:22:00,
2013-01-03 08:27:00,22.2,17.8,30.13,North,32767,0.0,0.0,83,0.00,,,0.00,Wunderground v.1.13,2013-01-03 13:27:00,
2013-01-03 08:32:00,22.3,17.9,30.14,North,32767,0.0,0.0,83,0.00,,,0.00,Wunderground v.1.13,2013-01-03 13:32:00,
2013-01-03 08:38:00,22.5,18.1,30.14,North,360,0.0,0.0,83,0.00,,,0.00,Wunderground v.1.13,2013-01-03 13:38:00,
2013-01-03 08:43:00,22.6,18.2,30.14,North,360,0.0,0.0,83,0.00,,,0.00,Wunderground v.1.13,2013-01-03 13:43:00,
2013-01-03 08:49:00,22.8,18.4,30.14,North,32767,0.0,0.0,83,0.00,,,0.00,Wunderground v.1.13,2013-01-03 13:49:00,
2013-01-03 08:54:00,22.9,18.8,30.14,North,32767,0.0,0.0,84,0.00,,,0.00,Wunderground v.1.13,2013-01-03 13:54:00,
2013-01-03 09:00:00,23.1,19.0,30.14,North,32767,0.0,0.0,84,0.00,,,0.00,Wunderground v.1.13,2013-01-03 14:00:00,
2013-01-03 09:06:00,23.4,19.3,30.14,North,32767,0.0,0.0,84,0.00,,,0.00,Wunderground v.1.13,2013-01-03 14:06:00,
2013-01-03 09:12:00,23.7,19.9,30.14,North,32767,0.0,0.0,85,0.00,,,0.00,Wunderground v.1.13,2013-01-03 14:12:00,
2013-01-03 09:17:00,23.9,20.0,30.14,North,32767,0.0,0.0,85,0.00,,,0.00,Wunderground v.1.13,2013-01-03 14:17:00,
2013-01-03 09:23:00,24.0,20.1,30.14,North,32767,0.0,0.0,85,0.00,,,0.00,Wunderground v.1.13,2013-01-03 14:23:00,
2013-01-03 09:28:00,24.1,20.5,30.14,North,32767,0.0,0.0,86,0.00,,,0.00,Wunderground v.1.13,2013-01-03 14:28:00,
2013-01-03 09:34:00,24.3,20.7,30.14,North,32767,0.0,0.0,86,0.00,,,0.00,Wunderground v.1.13,2013-01-03 14:34:00,
2013-01-03 09:40:00,24.4,21.1,30.14,North,32767,0.0,0.0,87,0.00,,,0.00,Wunderground v.1.13,2013-01-03 14:40:00,
2013-01-03 09:46:00,24.4,21.1,30.14,North,32767,0.0,0.0,87,0.00,,,0.00,Wunderground v.1.13,2013-01-03 14:46:00,
2013-01-03 09:51:00,24.5,21.2,30.14,North,32767,0.0,0.0,87,0.00,,,0.00,Wunderground v.1.13,2013-01-03 14:51:00,
2013-01-03 09:57:00,24.6,21.6,30.14,North,32767,0.0,0.0,88,0.00,,,0.00,Wunderground v.1.13,2013-01-03 14:57:00,
2013-01-03 10:03:00,24.7,21.7,30.15,North,32767,0.0,0.0,88,0.00,,,0.00,Wunderground v.1.13,2013-01-03 15:03:00,
2013-01-03 10:08:00,24.8,22.0,30.15,North,360,0.0,0.0,89,0.00,,,0.00,Wunderground v.1.13,2013-01-03 15:08:00,
2013-01-03 10:14:00,24.9,22.1,30.16,North,360,0.0,0.0,89,0.00,,,0.00,Wunderground v.1.13,2013-01-03 15:14:00,
2013-01-03 10:19:00,25.0,22.2,30.16,North,32767,0.0,0.0,89,0.00,,,0.00,Wunderground v.1.13,2013-01-03 15:19:00,
2013-01-03 10:25:00,25.1,22.6,30.16,North,32767,0.0,0.0,90,0.00,,,0.00,Wunderground v.1.13,2013-01-03 15:25:00,
2013-01-03 10:31:00,25.2,22.7,30.16,North,32767,0.0,0.0,90,0.00,,,0.00,Wunderground v.1.13,2013-01-03 15:31:00,
2013-01-03 10:37:00,25.3,22.8,30.16,North,360,0.0,0.0,90,0.00,,,0.00,Wunderground v.1.13,2013-01-03 15:37:00,
2013-01-03 10:43:00,25.4,22.9,30.16,North,32767,0.0,0.0,90,0.00,,,0.00,Wunderground v.1.13,2013-01-03 15:43:00,
2013-01-03 10:49:00,25.7,23.2,30.16,North,32767,0.0,0.0,90,0.00,,,0.00,Wunderground v.1.13,2013-01-03 15:49:00,
2013-01-03 10:54:00,26.0,23.7,30.16,North,360,0.0,0.0,91,0.00,,,0.00,Wunderground v.1.13,2013-01-03 15:54:00,
2013-01-03 11:00:00,26.3,24.0,30.16,North,32767,0.0,0.0,91,0.00,,,0.00,Wunderground v.1.13,2013-01-03 16:00:00,
2013-01-03 11:05:00,26.6,24.3,30.16,North,32767,0.0,0.0,91,0.00,,,0.00,Wunderground v.1.13,2013-01-03 16:05:00,
2013-01-03 11:10:00,26.8,24.5,30.16,North,32767,0.0,0.0,91,0.00,,,0.00,Wunderground v.1.13,2013-01-03 16:10:00,
2013-01-03 11:15:00,27.0,24.5,30.16,North,32767,0.0,0.0,90,0.00,,,0.00,Wunderground v.1.13,2013-01-03 16:15:00,
2013-01-03 11:21:00,27.2,24.7,30.16,North,32767,0.0,0.0,90,0.00,,,0.00,Wunderground v.1.13,2013-01-03 16:21:00,
2013-01-03 11:26:00,27.4,24.9,30.16,North,32767,0.0,0.0,90,0.00,,,0.00,Wunderground v.1.13,2013-01-03 16:26:00,
2013-01-03 11:32:00,27.6,25.1,30.15,North,32767,0.0,0.0,90,0.00,,,0.00,Wunderground v.1.13,2013-01-03 16:32:00,
2013-01-03 11:38:00,27.7,25.2,30.15,North,360,0.0,0.0,90,0.00,,,0.00,Wunderground v.1.13,2013-01-03 16:38:00,
2013-01-03 11:44:00,27.7,25.2,30.15,North,360,0.0,0.0,90,0.00,,,0.00,Wunderground v.1.13,2013-01-03 16:44:00,
2013-01-03 11:49:00,27.7,25.2,30.15,North,32767,0.0,0.0,90,0.00,,,0.00,Wunderground v.1.13,2013-01-03 16:49:00,
2013-01-03 11:55:00,27.8,25.2,30.15,North,32767,0.0,0.0,90,0.00,,,0.00,Wunderground v.1.13,2013-01-03 16:55:00,
2013-01-03 12:00:00,27.8,25.2,30.15,North,32767,0.0,0.0,90,0.00,,,0.00,Wunderground v.1.13,2013-01-03 17:00:00,
2013-01-03 12:05:00,27.9,25.3,30.15,North,32767,0.0,0.0,90,0.00,,,0.00,Wunderground v.1.13,2013-01-03 17:05:00,
2013-01-03 12:11:00,28.0,25.4,30.15,North,32767,0.0,0.0,90,0.00,,,0.00,Wunderground v.1.13,2013-01-03 17:11:00,
2013-01-03 12:17:00,27.9,25.3,30.14,North,360,0.0,0.0,90,0.00,,,0.00,Wunderground v.1.13,2013-01-03 17:17:00,
2013-01-03 12:22:00,28.0,25.4,30.14,North,32767,0.0,0.0,90,0.00,,,0.00,Wunderground v.1.13,2013-01-03 17:22:00,
2013-01-03 12:27:00,28.0,25.4,30.14,North,32767,0.0,0.0,90,0.00,,,0.00,Wunderground v.1.13,2013-01-03 17:27:00,
2013-01-03 12:33:00,28.0,25.4,30.14,North,32767,0.0,0.0,90,0.00,,,0.00,Wunderground v.1.13,2013-01-03 17:33:00,
2013-01-03 12:38:00,28.0,25.7,30.14,North,360,0.0,0.0,91,0.00,,,0.00,Wunderground v.1.13,2013-01-03 17:38:00,
2013-01-03 12:44:00,28.0,25.7,30.14,North,360,0.0,0.0,91,0.00,,,0.00,Wunderground v.1.13,2013-01-03 17:44:00,
2013-01-03 12:50:00,28.0,25.7,30.14,North,32767,0.0,0.0,91,0.00,,,0.00,Wunderground v.1.13,2013-01-03 17:50:00,
2013-01-03 12:55:00,28.0,25.7,30.14,North,32767,0.0,0.0,91,0.00,,,0.00,Wunderground v.1.13,2013-01-03 17:55:00,
2013-01-03 13:00:00,27.8,25.5,30.13,North,32767,0.0,0.0,91,0.00,,,0.00,Wunderground v.1.13,2013-01-03 18:00:00,
2013-01-03 13:06:00,27.8,25.5,30.13,North,32767,0.0,0.0,91,0.00,,,0.00,Wunderground v.1.13,2013-01-03 18:06:00,
2013-01-03 13:11:00,27.7,25.4,30.13,North,32767,0.0,0.0,91,0.00,,,0.00,Wunderground v.1.13,2013-01-03 18:11:00,
2013-01-03 13:17:00,27.7,25.4,30.13,North,32767,0.0,0.0,91,0.00,,,0.00,Wunderground v.1.13,2013-01-03 18:17:00,
2013-01-03 13:23:00,27.8,25.5,30.13,North,32767,0.0,0.0,91,0.00,,,0.00,Wunderground v.1.13,2013-01-03 18:23:00,
2013-01-03 13:28:00,27.9,25.6,30.13,North,360,0.0,0.0,91,0.00,,,0.00,Wunderground v.1.13,2013-01-03 18:28:00,
2013-01-03 13:34:00,28.0,25.7,30.13,North,32767,0.0,0.0,91,0.00,,,0.00,Wunderground v.1.13,2013-01-03 18:34:00,
2013-01-03 13:39:00,28.0,25.7,30.13,North,360,0.0,0.0,91,0.00,,,0.00,Wunderground v.1.13,2013-01-03 18:39:00,
2013-01-03 13:44:00,28.1,25.8,30.13,North,32767,0.0,0.0,91,0.00,,,0.00,Wunderground v.1.13,2013-01-03 18:44:00,
2013-01-03 13:50:00,28.3,26.0,30.13,North,360,0.0,0.0,91,0.00,,,0.00,Wunderground v.1.13,2013-01-03 18:50:00,
2013-01-03 13:55:00,28.4,26.1,30.13,North,360,0.0,0.0,91,0.00,,,0.00,Wunderground v.1.13,2013-01-03 18:55:00,
2013-01-03 14:01:00,28.6,26.3,30.14,North,32767,0.0,0.0,91,0.00,,,0.00,Wunderground v.1.13,2013-01-03 19:01:00,
2013-01-03 14:06:00,28.8,26.5,30.14,North,360,0.0,0.0,91,0.00,,,0.00,Wunderground v.1.13,2013-01-03 19:06:00,
2013-01-03 14:11:00,29.0,26.7,30.14,North,32767,0.0,0.0,91,0.00,,,0.00,Wunderground v.1.13,2013-01-03 19:11:00,
2013-01-03 14:17:00,29.3,27.0,30.14,North,360,0.0,0.0,91,0.00,,,0.00,Wunderground v.1.13,2013-01-03 19:17:00,
2013-01-03 14:52:00,30.7,27.6,30.14,North,32767,0.0,0.0,88,0.00,,,0.00,Wunderground v.1.13,2013-01-03 19:52:00,
2013-01-03 14:58:00,30.8,27.7,30.14,North,32767,0.0,0.0,88,0.00,,,0.00,Wunderground v.1.13,2013-01-03 19:58:00,
2013-01-03 15:03:00,30.8,27.4,30.14,North,360,0.0,0.0,87,0.00,,,0.00,Wunderground v.1.13,2013-01-03 20:03:00,
2013-01-03 15:08:00,30.9,27.5,30.14,North,360,0.0,0.0,87,0.00,,,0.00,Wunderground v.1.13,2013-01-03 20:08:00,
2013-01-03 15:13:00,30.9,27.5,30.15,North,360,0.0,0.0,87,0.00,,,0.00,Wunderground v.1.13,2013-01-03 20:13:00,
2013-01-03 15:18:00,30.9,27.5,30.15,North,360,0.0,0.0,87,0.00,,,0.00,Wunderground v.1.13,2013-01-03 20:18:00,
2013-01-03 15:24:00,30.9,27.5,30.15,North,32767,0.0,0.0,87,0.00,,,0.00,Wunderground v.1.13,2013-01-03 20:24:00,
2013-01-03 15:30:00,31.0,27.6,30.15,North,360,0.0,0.0,87,0.00,,,0.00,Wunderground v.1.13,2013-01-03 20:30:00,
2013-01-03 15:35:00,31.0,27.3,30.15,North,360,0.0,0.0,86,0.00,,,0.00,Wunderground v.1.13,2013-01-03 20:35:00,
2013-01-03 15:41:00,31.0,27.3,30.15,North,360,0.0,0.0,86,0.00,,,0.00,Wunderground v.1.13,2013-01-03 20:41:00,
2013-01-03 15:47:00,31.0,27.3,30.16,North,360,0.0,0.0,86,0.00,,,0.00,Wunderground v.1.13,2013-01-03 20:47:00,
2013-01-03 15:52:00,31.0,27.3,30.16,North,32767,0.0,0.0,86,0.00,,,0.00,Wunderground v.1.13,2013-01-03 20:52:00,
2013-01-03 15:57:00,30.9,26.9,30.16,North,32767,0.0,0.0,85,0.00,,,0.00,Wunderground v.1.13,2013-01-03 20:57:00,
2013-01-03 16:03:00,30.8,26.8,30.17,North,360,0.0,0.0,85,0.00,,,0.00,Wunderground v.1.13,2013-01-03 21:03:00,
2013-01-03 16:09:00,30.8,26.8,30.17,North,32767,0.0,0.0,85,0.00,,,0.00,Wunderground v.1.13,2013-01-03 21:09:00,
2013-01-03 16:14:00,30.8,26.8,30.17,North,32767,0.0,0.0,85,0.00,,,0.00,Wunderground v.1.13,2013-01-03 21:14:00,
2013-01-03 16:20:00,30.8,26.8,30.17,North,32767,0.0,0.0,85,0.00,,,0.00,Wunderground v.1.13,2013-01-03 21:20:00,
2013-01-03 16:26:00,30.7,26.4,30.17,North,32767,0.0,0.0,84,0.00,,,0.00,Wunderground v.1.13,2013-01-03 21:26:00,
2013-01-03 16:31:00,30.7,26.4,30.18,North,32767,0.0,0.0,84,0.00,,,0.00,Wunderground v.1.13,2013-01-03 21:31:00,
2013-01-03 16:36:00,30.7,26.4,30.18,North,32767,0.0,0.0,84,0.00,,,0.00,Wunderground v.1.13,2013-01-03 21:36:00,
2013-01-03 16:45:00,30.6,26.3,30.18,North,32767,0.0,0.0,84,0.00,,,0.00,Wunderground v.1.13,2013-01-03 21:45:00,
2013-01-03 16:51:00,30.6,26.3,30.18,North,32767,0.0,0.0,84,0.00,,,0.00,Wunderground v.1.13,2013-01-03 21:51:00,
2013-01-03 16:57:00,30.6,26.3,30.18,North,360,0.0,0.0,84,0.00,,,0.00,Wunderground v.1.13,2013-01-03 21:57:00,
2013-01-03 17:03:00,30.6,26.3,30.18,North,32767,0.0,0.0,84,0.00,,,0.00,Wunderground v.1.13,2013-01-03 22:03:00,
2013-01-03 17:08:00,30.6,26.3,30.18,North,32767,0.0,0.0,84,0.00,,,0.00,Wunderground v.1.13,2013-01-03 22:08:00,
2013-01-03 17:14:00,30.6,26.3,30.19,North,32767,0.0,0.0,84,0.00,,,0.00,Wunderground v.1.13,2013-01-03 22:14:00,
2013-01-03 17:19:00,30.5,26.2,30.19,North,360,0.0,0.0,84,0.00,,,0.00,Wunderground v.1.13,2013-01-03 22:19:00,
2013-01-03 17:25:00,30.5,26.2,30.19,North,360,0.0,0.0,84,0.00,,,0.00,Wunderground v.1.13,2013-01-03 22:25:00,
2013-01-03 17:30:00,30.5,26.2,30.20,North,32767,0.0,0.0,84,0.00,,,0.00,Wunderground v.1.13,2013-01-03 22:30:00,
2013-01-03 17:35:00,30.5,26.5,30.20,North,32767,0.0,0.0,85,0.00,,,0.00,Wunderground v.1.13,2013-01-03 22:35:00,
2013-01-03 17:41:00,30.5,26.5,30.20,North,32767,0.0,0.0,85,0.00,,,0.00,Wunderground v.1.13,2013-01-03 22:41:00,
2013-01-03 17:47:00,30.5,26.5,30.20,North,32767,0.0,0.0,85,0.00,,,0.00,Wunderground v.1.13,2013-01-03 22:47:00,
2013-01-03 17:52:00,30.5,26.5,30.20,North,32767,0.0,0.0,85,0.00,,,0.00,Wunderground v.1.13,2013-01-03 22:52:00,
2013-01-03 17:58:00,30.5,26.5,30.20,North,32767,0.0,0.0,85,0.00,,,0.00,Wunderground v.1.13,2013-01-03 22:58:00,
2013-01-03 18:03:00,30.5,26.5,30.20,North,32767,0.0,0.0,85,0.00,,,0.00,Wunderground v.1.13,2013-01-03 23:03:00,
2013-01-03 18:09:00,30.5,26.5,30.20,North,360,0.0,0.0,85,0.00,,,0.00,Wunderground v.1.13,2013-01-03 23:09:00,
2013-01-03 18:15:00,30.5,26.5,30.21,North,360,0.0,0.0,85,0.00,,,0.00,Wunderground v.1.13,2013-01-03 23:15:00,
2013-01-03 18:21:00,30.5,26.5,30.21,North,32767,0.0,0.0,85,0.00,,,0.00,Wunderground v.1.13,2013-01-03 23:21:00,
2013-01-03 18:27:00,30.5,26.5,30.21,North,32767,0.0,0.0,85,0.00,,,0.00,Wunderground v.1.13,2013-01-03 23:27:00,
2013-01-03 18:32:00,30.5,26.5,30.21,North,32767,0.0,0.0,85,0.00,,,0.00,Wunderground v.1.13,2013-01-03 23:32:00,
2013-01-03 18:38:00,30.5,26.5,30.21,North,360,0.0,0.0,85,0.00,,,0.00,Wunderground v.1.13,2013-01-03 23:38:00,
2013-01-03 18:44:00,30.5,26.5,30.22,North,32767,0.0,0.0,85,0.00,,,0.00,Wunderground v.1.13,2013-01-03 23:44:00,
2013-01-03 18:49:00,30.5,26.5,30.22,North,32767,0.0,0.0,85,0.00,,,0.00,Wunderground v.1.13,2013-01-03 23:49:00,
2013-01-03 18:55:00,30.5,26.5,30.22,North,32767,0.0,0.0,85,0.00,,,0.00,Wunderground v.1.13,2013-01-03 23:55:00,
2013-01-03 19:01:00,30.5,26.5,30.22,North,32767,0.0,0.0,85,0.00,,,0.00,Wunderground v.1.13,2013-01-04 00:01:00,
2013-01-03 19:06:00,30.5,26.2,30.22,North,32767,0.0,0.0,84,0.00,,,0.00,Wunderground v.1.13,2013-01-04 00:06:00,
2013-01-03 19:11:00,30.5,26.5,30.22,North,32767,0.0,0.0,85,0.00,,,0.00,Wunderground v.1.13,2013-01-04 00:11:00,
2013-01-03 19:17:00,30.5,26.2,30.22,North,32767,0.0,0.0,84,0.00,,,0.00,Wunderground v.1.13,2013-01-04 00:17:00,
2013-01-03 19:23:00,30.5,26.2,30.22,North,360,0.0,0.0,84,0.00,,,0.00,Wunderground v.1.13,2013-01-04 00:23:00,
2013-01-03 19:29:00,30.5,26.2,30.22,North,360,0.0,0.0,84,0.00,,,0.00,Wunderground v.1.13,2013-01-04 00:29:00,
2013-01-03 19:35:00,30.5,26.2,30.22,North,32767,0.0,0.0,84,0.00,,,0.00,Wunderground v.1.13,2013-01-04 00:35:00,
2013-01-03 19:40:00,30.5,26.2,30.22,North,32767,0.0,0.0,84,0.00,,,0.00,Wunderground v.1.13,2013-01-04 00:40:00,
2013-01-03 19:46:00,30.5,26.2,30.23,North,32767,0.0,0.0,84,0.00,,,0.00,Wunderground v.1.13,2013-01-04 00:46:00,
2013-01-03 19:52:00,30.5,26.2,30.23,North,360,0.0,0.0,84,0.00,,,0.00,Wunderground v.1.13,2013-01-04 00:52:00,
2013-01-03 19:57:00,30.5,26.2,30.23,North,360,0.0,0.0,84,0.00,,,0.00,Wunderground v.1.13,2013-01-04 00:57:00,
2013-01-03 20:03:00,30.5,26.2,30.23,North,32767,0.0,0.0,84,0.00,,,0.00,Wunderground v.1.13,2013-01-04 01:03:00,
2013-01-03 20:08:00,30.5,26.2,30.23,North,32767,0.0,0.0,84,0.00,,,0.00,Wunderground v.1.13,2013-01-04 01:08:00,
2013-01-03 20:14:00,30.5,26.2,30.23,North,360,0.0,0.0,84,0.00,,,0.00,Wunderground v.1.13,2013-01-04 01:14:00,
2013-01-03 20:20:00,30.5,26.2,30.23,North,360,0.0,0.0,84,0.00,,,0.00,Wunderground v.1.13,2013-01-04 01:20:00,
2013-01-03 20:26:00,30.5,26.2,30.23,North,32767,0.0,0.0,84,0.00,,,0.00,Wunderground v.1.13,2013-01-04 01:26:00,
2013-01-03 20:31:00,30.5,26.2,30.22,North,360,0.0,0.0,84,0.00,,,0.00,Wunderground v.1.13,2013-01-04 01:31:00,
2013-01-03 20:37:00,30.5,26.2,30.22,North,32767,0.0,0.0,84,0.00,,,0.00,Wunderground v.1.13,2013-01-04 01:37:00,
2013-01-03 20:43:00,30.5,26.5,30.23,North,32767,0.0,0.0,85,0.00,,,0.00,Wunderground v.1.13,2013-01-04 01:43:00,
2013-01-03 20:48:00,30.5,26.5,30.23,North,32767,0.0,0.0,85,0.00,,,0.00,Wunderground v.1.13,2013-01-04 01:48:00,
2013-01-03 20:54:00,30.5,26.5,30.23,North,32767,0.0,0.0,85,0.00,,,0.00,Wunderground v.1.13,2013-01-04 01:54:00,
2013-01-03 20:59:00,30.5,26.5,30.23,North,32767,0.0,0.0,85,0.00,,,0.00,Wunderground v.1.13,2013-01-04 01:59:00,
2013-01-03 21:05:00,30.5,26.5,30.23,North,32767,0.0,0.0,85,0.00,,,0.00,Wunderground v.1.13,2013-01-04 02:05:00,
2013-01-03 21:10:00,30.5,26.5,30.23,North,32767,0.0,0.0,85,0.00,,,0.00,Wunderground v.1.13,2013-01-04 02:10:00,
2013-01-03 21:16:00,30.5,26.5,30.22,North,32767,0.0,0.0,85,0.00,,,0.00,Wunderground v.1.13,2013-01-04 02:16:00,
2013-01-03 21:21:00,30.5,26.5,30.22,North,360,0.0,0.0,85,0.00,,,0.00,Wunderground v.1.13,2013-01-04 02:21:00,
2013-01-03 21:26:00,30.5,26.5,30.22,North,360,0.0,0.0,85,0.00,,,0.00,Wunderground v.1.13,2013-01-04 02:26:00,
2013-01-03 21:32:00,30.5,26.5,30.22,North,360,0.0,0.0,85,0.00,,,0.00,Wunderground v.1.13,2013-01-04 02:32:00,
2013-01-03 21:38:00,30.4,26.4,30.22,North,32767,0.0,0.0,85,0.00,,,0.00,Wunderground v.1.13,2013-01-04 02:38:00,
2013-01-03 21:43:00,30.5,26.5,30.22,North,360,0.0,0.0,85,0.00,,,0.00,Wunderground v.1.13,2013-01-04 02:43:00,
2013-01-03 21:48:00,30.5,26.5,30.22,North,32767,0.0,0.0,85,0.00,,,0.00,Wunderground v.1.13,2013-01-04 02:48:00,
2013-01-03 21:54:00,30.5,26.5,30.22,North,360,0.0,0.0,85,0.00,,,0.00,Wunderground v.1.13,2013-01-04 02:54:00,
2013-01-03 22:00:00,30.4,26.4,30.22,North,32767,0.0,0.0,85,0.00,,,0.00,Wunderground v.1.13,2013-01-04 03:00:00,
2013-01-03 22:06:00,30.4,26.4,30.22,North,32767,0.0,0.0,85,0.00,,,0.00,Wunderground v.1.13,2013-01-04 03:06:00,
2013-01-03 22:11:00,30.5,26.5,30.22,North,32767,0.0,0.0,85,0.00,,,0.00,Wunderground v.1.13,2013-01-04 03:11:00,
2013-01-03 22:16:00,30.5,26.5,30.22,North,360,0.0,0.0,85,0.00,,,0.00,Wunderground v.1.13,2013-01-04 03:16:00,
2013-01-03 22:22:00,30.4,26.4,30.22,North,32767,0.0,0.0,85,0.00,,,0.00,Wunderground v.1.13,2013-01-04 03:22:00,
2013-01-03 22:28:00,30.4,26.4,30.22,North,32767,0.0,0.0,85,0.00,,,0.00,Wunderground v.1.13,2013-01-04 03:28:00,
2013-01-03 22:33:00,30.4,26.4,30.22,North,32767,0.0,0.0,85,0.00,,,0.00,Wunderground v.1.13,2013-01-04 03:33:00,
2013-01-03 22:38:00,30.4,26.4,30.22,North,32767,0.0,0.0,85,0.00,,,0.00,Wunderground v.1.13,2013-01-04 03:38:00,
2013-01-03 22:44:00,30.4,26.4,30.22,North,360,0.0,0.0,85,0.00,,,0.00,Wunderground v.1.13,2013-01-04 03:44:00,
2013-01-03 22:49:00,30.4,26.4,30.22,North,32767,0.0,0.0,85,0.00,,,0.00,Wunderground v.1.13,2013-01-04 03:49:00,
2013-01-03 22:54:00,30.4,26.1,30.22,North,32767,0.0,0.0,84,0.00,,,0.00,Wunderground v.1.13,2013-01-04 03:54:00,
2013-01-03 23:00:00,30.4,26.1,30.21,North,360,0.0,0.0,84,0.00,,,0.00,Wunderground v.1.13,2013-01-04 04:00:00,
2013-01-03 23:06:00,30.4,26.4,30.21,North,32767,0.0,0.0,85,0.00,,,0.00,Wunderground v.1.13,2013-01-04 04:06:00,
2013-01-03 23:11:00,30.3,26.3,30.21,North,32767,0.0,0.0,85,0.00,,,0.00,Wunderground v.1.13,2013-01-04 04:11:00,
2013-01-03 23:17:00,30.3,26.3,30.21,North,360,0.0,0.0,85,0.00,,,0.00,Wunderground v.1.13,2013-01-04 04:17:00,
2013-01-03 23:22:00,30.3,26.3,30.21,North,360,0.0,0.0,85,0.00,,,0.00,Wunderground v.1.13,2013-01-04 04:22:00,
2013-01-03 23:28:00,30.3,26.3,30.21,North,360,0.0,0.0,85,0.00,,,0.00,Wunderground v.1.13,2013-01-04 04:28:00,
2013-01-03 23:34:00,30.3,26.3,30.21,North,32767,0.0,0.0,85,0.00,,,0.00,Wunderground v.1.13,2013-01-04 04:34:00,
2013-01-03 23:39:00,30.3,26.0,30.21,North,32767,0.0,0.0,84,0.00,,,0.00,Wunderground v.1.13,2013-01-04 04:39:00,
2013-01-03 23:45:00,30.3,26.0,30.21,North,360,0.0,0.0,84,0.00,,,0.00,Wunderground v.1.13,2013-01-04 04:45:00,
2013-01-03 23:50:00,30.3,26.0,30.21,North,32767,0.0,0.0,84,0.00,,,0.00,Wunderground v.1.13,2013-01-04 04:50:00,
2013-01-03 23:55:00,30.3,26.0,30.21,North,32767,0.0,0.0,84,0.00,,,0.00,Wunderground v.1.13,2013-01-04 04:55:00,